sensor_id;sensor_type;location;lat;lon;timestamp;P1;durP1;ratioP1;P2;durP2;ratioP2
55489;SDS011;44029;52.956;4.772;2022-11-18T00:02:07;8.07;;;2.40;;
55489;SDS011;44029;52.956;4.772;2022-11-18T00:04:32;4.82;;;2.58;;
55489;SDS011;44029;52.956;4.772;2022-11-18T00:06:58;7.35;;;2.78;;
55489;SDS011;44029;52.956;4.772;2022-11-18T00:09:23;4.53;;;2.78;;
55489;SDS011;44029;52.956;4.772;2022-11-18T00:11:48;3.70;;;2.28;;
55489;SDS011;44029;52.956;4.772;2022-11-18T00:14:32;7.47;;;2.83;;
55489;SDS011;44029;52.956;4.772;2022-11-18T00:16:59;6.50;;;2.33;;
55489;SDS011;44029;52.956;4.772;2022-11-18T00:19:26;6.57;;;2.40;;
55489;SDS011;44029;52.956;4.772;2022-11-18T00:21:54;5.88;;;2.85;;
55489;SDS011;44029;52.956;4.772;2022-11-18T00:24:20;6.65;;;2.50;;
55489;SDS011;44029;52.956;4.772;2022-11-18T00:26:46;9.55;;;2.92;;
55489;SDS011;44029;52.956;4.772;2022-11-18T00:29:11;4.75;;;2.75;;
55489;SDS011;44029;52.956;4.772;2022-11-18T00:31:37;5.50;;;2.70;;
55489;SDS011;44029;52.956;4.772;2022-11-18T00:34:03;6.95;;;2.92;;
55489;SDS011;44029;52.956;4.772;2022-11-18T00:36:29;6.10;;;2.70;;
55489;SDS011;44029;52.956;4.772;2022-11-18T00:38:54;7.32;;;3.22;;
55489;SDS011;44029;52.956;4.772;2022-11-18T00:41:20;7.43;;;3.03;;
55489;SDS011;44029;52.956;4.772;2022-11-18T00:43:45;4.88;;;2.67;;
55489;SDS011;44029;52.956;4.772;2022-11-18T00:46:11;7.63;;;3.00;;
55489;SDS011;44029;52.956;4.772;2022-11-18T00:48:37;8.02;;;3.72;;
55489;SDS011;44029;52.956;4.772;2022-11-18T00:51:13;11.98;;;3.20;;
55489;SDS011;44029;52.956;4.772;2022-11-18T00:53:40;6.05;;;3.22;;
55489;SDS011;44029;52.956;4.772;2022-11-18T00:56:06;9.52;;;3.40;;
55489;SDS011;44029;52.956;4.772;2022-11-18T00:58:32;7.78;;;2.92;;
55489;SDS011;44029;52.956;4.772;2022-11-18T01:00:57;7.47;;;3.17;;
55489;SDS011;44029;52.956;4.772;2022-11-18T01:03:23;6.10;;;3.17;;
55489;SDS011;44029;52.956;4.772;2022-11-18T01:05:49;5.75;;;2.92;;
55489;SDS011;44029;52.956;4.772;2022-11-18T01:08:15;5.63;;;3.10;;
55489;SDS011;44029;52.956;4.772;2022-11-18T01:10:42;7.53;;;3.40;;
55489;SDS011;44029;52.956;4.772;2022-11-18T01:13:12;13.13;;;3.65;;
55489;SDS011;44029;52.956;4.772;2022-11-18T01:15:55;8.88;;;3.20;;
55489;SDS011;44029;52.956;4.772;2022-11-18T01:18:22;10.25;;;3.75;;
55489;SDS011;44029;52.956;4.772;2022-11-18T01:20:49;10.93;;;3.88;;
55489;SDS011;44029;52.956;4.772;2022-11-18T01:23:15;9.82;;;3.78;;
55489;SDS011;44029;52.956;4.772;2022-11-18T01:25:43;7.57;;;4.15;;
55489;SDS011;44029;52.956;4.772;2022-11-18T01:28:09;9.82;;;3.78;;
55489;SDS011;44029;52.956;4.772;2022-11-18T01:30:36;8.20;;;4.25;;
55489;SDS011;44029;52.956;4.772;2022-11-18T01:33:03;12.82;;;4.80;;
55489;SDS011;44029;52.956;4.772;2022-11-18T01:35:39;8.38;;;4.30;;
55489;SDS011;44029;52.956;4.772;2022-11-18T01:38:06;8.38;;;4.65;;
55489;SDS011;44029;52.956;4.772;2022-11-18T01:40:34;8.82;;;4.05;;
55489;SDS011;44029;52.956;4.772;2022-11-18T01:43:00;13.32;;;4.30;;
55489;SDS011;44029;52.956;4.772;2022-11-18T01:45:33;9.07;;;4.93;;
55489;SDS011;44029;52.956;4.772;2022-11-18T01:50:34;10.80;;;4.43;;
55489;SDS011;44029;52.956;4.772;2022-11-18T01:53:04;8.10;;;4.38;;
55489;SDS011;44029;52.956;4.772;2022-11-18T01:55:36;8.57;;;4.10;;
55489;SDS011;44029;52.956;4.772;2022-11-18T01:58:09;11.80;;;4.53;;
55489;SDS011;44029;52.956;4.772;2022-11-18T02:00:46;16.48;;;5.50;;
55489;SDS011;44029;52.956;4.772;2022-11-18T02:03:11;11.25;;;4.20;;
55489;SDS011;44029;52.956;4.772;2022-11-18T02:05:38;7.57;;;4.40;;
55489;SDS011;44029;52.956;4.772;2022-11-18T02:08:05;7.57;;;3.05;;
55489;SDS011;44029;52.956;4.772;2022-11-18T02:10:31;10.80;;;4.22;;
55489;SDS011;44029;52.956;4.772;2022-11-18T02:12:57;11.77;;;4.85;;
55489;SDS011;44029;52.956;4.772;2022-11-18T02:15:45;10.15;;;4.38;;
55489;SDS011;44029;52.956;4.772;2022-11-18T02:18:37;7.65;;;3.97;;
55489;SDS011;44029;52.956;4.772;2022-11-18T02:24:42;10.63;;;4.53;;
55489;SDS011;44029;52.956;4.772;2022-11-18T02:30:22;9.07;;;4.43;;
55489;SDS011;44029;52.956;4.772;2022-11-18T02:32:55;11.60;;;5.13;;
55489;SDS011;44029;52.956;4.772;2022-11-18T02:35:29;9.85;;;5.38;;
55489;SDS011;44029;52.956;4.772;2022-11-18T02:38:14;6.97;;;3.85;;
55489;SDS011;44029;52.956;4.772;2022-11-18T02:40:48;11.45;;;4.78;;
55489;SDS011;44029;52.956;4.772;2022-11-18T02:43:20;10.95;;;4.70;;
55489;SDS011;44029;52.956;4.772;2022-11-18T02:45:53;9.48;;;4.25;;
55489;SDS011;44029;52.956;4.772;2022-11-18T02:48:23;8.00;;;4.75;;
55489;SDS011;44029;52.956;4.772;2022-11-18T02:50:51;11.60;;;5.22;;
55489;SDS011;44029;52.956;4.772;2022-11-18T02:53:19;7.90;;;4.25;;
55489;SDS011;44029;52.956;4.772;2022-11-18T02:55:45;11.27;;;5.32;;
55489;SDS011;44029;52.956;4.772;2022-11-18T02:58:13;9.77;;;4.75;;
55489;SDS011;44029;52.956;4.772;2022-11-18T03:00:41;10.15;;;5.00;;
55489;SDS011;44029;52.956;4.772;2022-11-18T03:03:27;12.13;;;5.25;;
55489;SDS011;44029;52.956;4.772;2022-11-18T03:08:45;12.57;;;5.05;;
55489;SDS011;44029;52.956;4.772;2022-11-18T03:11:23;10.88;;;4.75;;
55489;SDS011;44029;52.956;4.772;2022-11-18T03:16:28;11.20;;;5.53;;
55489;SDS011;44029;52.956;4.772;2022-11-18T03:19:16;13.30;;;6.40;;
55489;SDS011;44029;52.956;4.772;2022-11-18T03:25:12;11.90;;;5.57;;
55489;SDS011;44029;52.956;4.772;2022-11-18T03:30:12;16.48;;;6.55;;
55489;SDS011;44029;52.956;4.772;2022-11-18T03:32:42;9.20;;;5.60;;
55489;SDS011;44029;52.956;4.772;2022-11-18T03:35:15;9.65;;;5.68;;
55489;SDS011;44029;52.956;4.772;2022-11-18T03:37:45;11.88;;;6.03;;
55489;SDS011;44029;52.956;4.772;2022-11-18T03:40:16;11.23;;;6.53;;
55489;SDS011;44029;52.956;4.772;2022-11-18T03:42:47;12.13;;;6.97;;
55489;SDS011;44029;52.956;4.772;2022-11-18T03:45:19;14.45;;;6.18;;
55489;SDS011;44029;52.956;4.772;2022-11-18T03:47:56;15.88;;;6.07;;
55489;SDS011;44029;52.956;4.772;2022-11-18T03:50:27;17.83;;;6.63;;
55489;SDS011;44029;52.956;4.772;2022-11-18T03:52:56;13.90;;;7.32;;
55489;SDS011;44029;52.956;4.772;2022-11-18T03:55:23;16.73;;;7.32;;
55489;SDS011;44029;52.956;4.772;2022-11-18T03:57:55;13.82;;;6.85;;
55489;SDS011;44029;52.956;4.772;2022-11-18T04:00:28;20.98;;;7.80;;
55489;SDS011;44029;52.956;4.772;2022-11-18T04:02:59;9.40;;;5.97;;
55489;SDS011;44029;52.956;4.772;2022-11-18T04:05:25;17.08;;;6.63;;
55489;SDS011;44029;52.956;4.772;2022-11-18T04:07:58;15.73;;;7.53;;
55489;SDS011;44029;52.956;4.772;2022-11-18T04:10:30;12.43;;;7.00;;
55489;SDS011;44029;52.956;4.772;2022-11-18T04:13:44;19.17;;;8.85;;
55489;SDS011;44029;52.956;4.772;2022-11-18T04:15:53;13.88;;;7.07;;
55489;SDS011;44029;52.956;4.772;2022-11-18T04:18:19;13.88;;;7.28;;
55489;SDS011;44029;52.956;4.772;2022-11-18T04:20:45;18.27;;;7.32;;
55489;SDS011;44029;52.956;4.772;2022-11-18T04:23:10;12.48;;;8.23;;
55489;SDS011;44029;52.956;4.772;2022-11-18T04:25:35;17.27;;;7.90;;
55489;SDS011;44029;52.956;4.772;2022-11-18T04:28:01;17.88;;;7.75;;
55489;SDS011;44029;52.956;4.772;2022-11-18T04:30:26;18.63;;;8.18;;
55489;SDS011;44029;52.956;4.772;2022-11-18T04:32:52;17.50;;;7.85;;
55489;SDS011;44029;52.956;4.772;2022-11-18T04:35:17;21.70;;;8.05;;
55489;SDS011;44029;52.956;4.772;2022-11-18T04:37:42;18.83;;;9.40;;
55489;SDS011;44029;52.956;4.772;2022-11-18T04:40:08;18.55;;;7.80;;
55489;SDS011;44029;52.956;4.772;2022-11-18T04:42:34;14.23;;;8.65;;
55489;SDS011;44029;52.956;4.772;2022-11-18T04:45:00;15.45;;;8.05;;
55489;SDS011;44029;52.956;4.772;2022-11-18T04:47:25;19.35;;;9.02;;
55489;SDS011;44029;52.956;4.772;2022-11-18T04:49:50;17.27;;;7.65;;
55489;SDS011;44029;52.956;4.772;2022-11-18T04:52:16;18.08;;;8.18;;
55489;SDS011;44029;52.956;4.772;2022-11-18T04:54:41;17.85;;;8.90;;
55489;SDS011;44029;52.956;4.772;2022-11-18T04:57:07;17.38;;;8.70;;
55489;SDS011;44029;52.956;4.772;2022-11-18T04:59:33;17.75;;;8.77;;
55489;SDS011;44029;52.956;4.772;2022-11-18T05:01:58;15.95;;;8.13;;
55489;SDS011;44029;52.956;4.772;2022-11-18T05:04:26;12.93;;;7.05;;
55489;SDS011;44029;52.956;4.772;2022-11-18T05:06:56;14.25;;;7.18;;
55489;SDS011;44029;52.956;4.772;2022-11-18T05:09:22;14.68;;;8.20;;
55489;SDS011;44029;52.956;4.772;2022-11-18T05:11:48;18.83;;;8.98;;
55489;SDS011;44029;52.956;4.772;2022-11-18T05:14:32;21.73;;;9.45;;
55489;SDS011;44029;52.956;4.772;2022-11-18T05:16:59;15.90;;;8.20;;
55489;SDS011;44029;52.956;4.772;2022-11-18T05:19:25;22.50;;;8.40;;
55489;SDS011;44029;52.956;4.772;2022-11-18T05:21:51;20.55;;;8.07;;
55489;SDS011;44029;52.956;4.772;2022-11-18T05:24:17;20.92;;;9.38;;
55489;SDS011;44029;52.956;4.772;2022-11-18T05:26:43;17.52;;;8.93;;
55489;SDS011;44029;52.956;4.772;2022-11-18T05:29:09;16.45;;;8.30;;
55489;SDS011;44029;52.956;4.772;2022-11-18T05:31:35;19.67;;;8.85;;
55489;SDS011;44029;52.956;4.772;2022-11-18T05:34:00;17.33;;;8.88;;
55489;SDS011;44029;52.956;4.772;2022-11-18T05:36:26;19.10;;;8.00;;
55489;SDS011;44029;52.956;4.772;2022-11-18T05:38:51;14.18;;;8.25;;
55489;SDS011;44029;52.956;4.772;2022-11-18T05:41:17;19.98;;;8.48;;
55489;SDS011;44029;52.956;4.772;2022-11-18T05:46:34;14.35;;;8.32;;
55489;SDS011;44029;52.956;4.772;2022-11-18T05:49:00;20.30;;;8.25;;
55489;SDS011;44029;52.956;4.772;2022-11-18T05:51:25;16.23;;;8.50;;
55489;SDS011;44029;52.956;4.772;2022-11-18T05:53:51;24.77;;;8.43;;
55489;SDS011;44029;52.956;4.772;2022-11-18T05:58:57;21.73;;;9.40;;
55489;SDS011;44029;52.956;4.772;2022-11-18T06:01:30;21.10;;;8.73;;
55489;SDS011;44029;52.956;4.772;2022-11-18T06:04:02;29.33;;;10.25;;
55489;SDS011;44029;52.956;4.772;2022-11-18T06:06:33;19.85;;;10.15;;
55489;SDS011;44029;52.956;4.772;2022-11-18T06:09:00;15.98;;;9.25;;
55489;SDS011;44029;52.956;4.772;2022-11-18T06:11:27;20.20;;;9.98;;
55489;SDS011;44029;52.956;4.772;2022-11-18T06:14:02;19.88;;;10.15;;
55489;SDS011;44029;52.956;4.772;2022-11-18T06:16:34;30.35;;;10.13;;
55489;SDS011;44029;52.956;4.772;2022-11-18T06:19:02;25.38;;;9.50;;
55489;SDS011;44029;52.956;4.772;2022-11-18T06:21:28;18.23;;;8.32;;
55489;SDS011;44029;52.956;4.772;2022-11-18T06:23:54;17.70;;;9.02;;
55489;SDS011;44029;52.956;4.772;2022-11-18T06:26:20;19.45;;;8.98;;
55489;SDS011;44029;52.956;4.772;2022-11-18T06:28:45;20.73;;;9.50;;
55489;SDS011;44029;52.956;4.772;2022-11-18T06:31:12;18.15;;;8.45;;
55489;SDS011;44029;52.956;4.772;2022-11-18T06:33:37;22.15;;;8.65;;
55489;SDS011;44029;52.956;4.772;2022-11-18T06:36:03;22.15;;;9.98;;
55489;SDS011;44029;52.956;4.772;2022-11-18T06:38:28;20.10;;;8.65;;
55489;SDS011;44029;52.956;4.772;2022-11-18T06:40:57;17.33;;;8.63;;
55489;SDS011;44029;52.956;4.772;2022-11-18T06:43:24;15.43;;;8.57;;
55489;SDS011;44029;52.956;4.772;2022-11-18T06:46:11;18.75;;;8.60;;
55489;SDS011;44029;52.956;4.772;2022-11-18T06:48:58;22.10;;;9.30;;
55489;SDS011;44029;52.956;4.772;2022-11-18T06:51:23;22.00;;;8.95;;
55489;SDS011;44029;52.956;4.772;2022-11-18T06:53:49;15.27;;;9.05;;
55489;SDS011;44029;52.956;4.772;2022-11-18T06:56:15;21.00;;;8.68;;
55489;SDS011;44029;52.956;4.772;2022-11-18T06:58:42;26.67;;;11.23;;
55489;SDS011;44029;52.956;4.772;2022-11-18T07:01:17;17.35;;;8.90;;
55489;SDS011;44029;52.956;4.772;2022-11-18T07:03:48;21.85;;;9.85;;
55489;SDS011;44029;52.956;4.772;2022-11-18T07:06:15;24.23;;;10.90;;
55489;SDS011;44029;52.956;4.772;2022-11-18T07:08:42;22.85;;;9.55;;
55489;SDS011;44029;52.956;4.772;2022-11-18T07:11:09;20.83;;;10.35;;
55489;SDS011;44029;52.956;4.772;2022-11-18T07:13:36;20.40;;;9.68;;
55489;SDS011;44029;52.956;4.772;2022-11-18T07:16:03;24.63;;;10.07;;
55489;SDS011;44029;52.956;4.772;2022-11-18T07:18:30;22.05;;;10.00;;
55489;SDS011;44029;52.956;4.772;2022-11-18T07:21:02;26.17;;;11.23;;
55489;SDS011;44029;52.956;4.772;2022-11-18T07:23:29;25.02;;;10.88;;
55489;SDS011;44029;52.956;4.772;2022-11-18T07:25:55;20.17;;;9.63;;
55489;SDS011;44029;52.956;4.772;2022-11-18T07:28:20;23.52;;;10.65;;
55489;SDS011;44029;52.956;4.772;2022-11-18T07:30:46;23.70;;;10.30;;
55489;SDS011;44029;52.956;4.772;2022-11-18T07:33:11;28.52;;;11.82;;
55489;SDS011;44029;52.956;4.772;2022-11-18T07:35:36;26.10;;;11.10;;
55489;SDS011;44029;52.956;4.772;2022-11-18T07:38:02;20.92;;;10.63;;
55489;SDS011;44029;52.956;4.772;2022-11-18T07:40:27;24.73;;;10.35;;
55489;SDS011;44029;52.956;4.772;2022-11-18T07:42:53;21.63;;;10.77;;
55489;SDS011;44029;52.956;4.772;2022-11-18T07:45:18;25.80;;;11.07;;
55489;SDS011;44029;52.956;4.772;2022-11-18T07:47:43;22.20;;;10.30;;
55489;SDS011;44029;52.956;4.772;2022-11-18T07:50:08;19.85;;;10.05;;
55489;SDS011;44029;52.956;4.772;2022-11-18T07:52:34;22.45;;;11.85;;
55489;SDS011;44029;52.956;4.772;2022-11-18T07:54:59;21.55;;;10.80;;
55489;SDS011;44029;52.956;4.772;2022-11-18T07:57:24;26.58;;;11.10;;
55489;SDS011;44029;52.956;4.772;2022-11-18T07:59:50;23.75;;;11.27;;
55489;SDS011;44029;52.956;4.772;2022-11-18T08:02:15;28.15;;;10.68;;
55489;SDS011;44029;52.956;4.772;2022-11-18T08:04:40;26.17;;;11.00;;
55489;SDS011;44029;52.956;4.772;2022-11-18T08:07:08;19.42;;;9.23;;
55489;SDS011;44029;52.956;4.772;2022-11-18T08:09:34;23.40;;;11.00;;
55489;SDS011;44029;52.956;4.772;2022-11-18T08:11:59;21.90;;;10.65;;
55489;SDS011;44029;52.956;4.772;2022-11-18T08:14:25;18.58;;;10.00;;
55489;SDS011;44029;52.956;4.772;2022-11-18T08:16:51;23.80;;;9.38;;
55489;SDS011;44029;52.956;4.772;2022-11-18T08:19:16;24.50;;;11.13;;
55489;SDS011;44029;52.956;4.772;2022-11-18T08:21:41;21.30;;;9.57;;
55489;SDS011;44029;52.956;4.772;2022-11-18T08:24:08;31.95;;;10.70;;
55489;SDS011;44029;52.956;4.772;2022-11-18T08:26:34;29.80;;;9.68;;
55489;SDS011;44029;52.956;4.772;2022-11-18T08:28:59;17.15;;;9.25;;
55489;SDS011;44029;52.956;4.772;2022-11-18T08:31:26;19.15;;;9.80;;
55489;SDS011;44029;52.956;4.772;2022-11-18T08:33:56;20.70;;;10.80;;
55489;SDS011;44029;52.956;4.772;2022-11-18T08:36:24;18.48;;;10.27;;
55489;SDS011;44029;52.956;4.772;2022-11-18T08:38:53;33.25;;;12.65;;
55489;SDS011;44029;52.956;4.772;2022-11-18T08:41:30;23.05;;;9.80;;
55489;SDS011;44029;52.956;4.772;2022-11-18T08:43:57;26.23;;;10.30;;
55489;SDS011;44029;52.956;4.772;2022-11-18T08:46:23;18.88;;;9.10;;
55489;SDS011;44029;52.956;4.772;2022-11-18T08:48:48;23.35;;;10.70;;
55489;SDS011;44029;52.956;4.772;2022-11-18T08:51:13;28.35;;;10.27;;
55489;SDS011;44029;52.956;4.772;2022-11-18T08:53:40;16.73;;;7.22;;
55489;SDS011;44029;52.956;4.772;2022-11-18T08:56:05;18.52;;;10.25;;
55489;SDS011;44029;52.956;4.772;2022-11-18T08:58:31;24.65;;;10.10;;
55489;SDS011;44029;52.956;4.772;2022-11-18T09:00:57;21.15;;;9.13;;
55489;SDS011;44029;52.956;4.772;2022-11-18T09:03:22;26.23;;;10.15;;
55489;SDS011;44029;52.956;4.772;2022-11-18T09:05:47;21.10;;;9.93;;
55489;SDS011;44029;52.956;4.772;2022-11-18T09:08:13;19.38;;;9.98;;
55489;SDS011;44029;52.956;4.772;2022-11-18T09:10:39;20.70;;;10.13;;
55489;SDS011;44029;52.956;4.772;2022-11-18T09:13:05;22.67;;;10.82;;
55489;SDS011;44029;52.956;4.772;2022-11-18T09:15:31;16.45;;;9.23;;
55489;SDS011;44029;52.956;4.772;2022-11-18T09:17:56;15.95;;;8.43;;
55489;SDS011;44029;52.956;4.772;2022-11-18T09:20:22;21.13;;;9.98;;
55489;SDS011;44029;52.956;4.772;2022-11-18T09:22:47;24.13;;;10.25;;
55489;SDS011;44029;52.956;4.772;2022-11-18T09:25:13;20.20;;;9.50;;
55489;SDS011;44029;52.956;4.772;2022-11-18T09:27:38;17.30;;;9.32;;
55489;SDS011;44029;52.956;4.772;2022-11-18T09:30:04;14.40;;;8.85;;
55489;SDS011;44029;52.956;4.772;2022-11-18T09:32:31;17.90;;;8.75;;
55489;SDS011;44029;52.956;4.772;2022-11-18T09:34:57;23.48;;;9.35;;
55489;SDS011;44029;52.956;4.772;2022-11-18T09:37:22;18.77;;;10.20;;
55489;SDS011;44029;52.956;4.772;2022-11-18T09:39:48;17.80;;;8.73;;
55489;SDS011;44029;52.956;4.772;2022-11-18T09:47:57;18.70;;;9.70;;
55489;SDS011;44029;52.956;4.772;2022-11-18T09:50:24;19.85;;;9.20;;
55489;SDS011;44029;52.956;4.772;2022-11-18T09:52:54;14.52;;;9.20;;
55489;SDS011;44029;52.956;4.772;2022-11-18T09:55:31;18.98;;;10.00;;
55489;SDS011;44029;52.956;4.772;2022-11-18T09:58:01;18.23;;;9.73;;
55489;SDS011;44029;52.956;4.772;2022-11-18T10:00:28;18.88;;;9.38;;
55489;SDS011;44029;52.956;4.772;2022-11-18T10:02:59;22.77;;;9.20;;
55489;SDS011;44029;52.956;4.772;2022-11-18T10:05:26;18.40;;;9.70;;
55489;SDS011;44029;52.956;4.772;2022-11-18T10:10:48;18.83;;;9.18;;
55489;SDS011;44029;52.956;4.772;2022-11-18T10:13:31;16.88;;;8.60;;
55489;SDS011;44029;52.956;4.772;2022-11-18T10:34:57;23.42;;;9.95;;
55489;SDS011;44029;52.956;4.772;2022-11-18T10:37:25;17.52;;;10.32;;
55489;SDS011;44029;52.956;4.772;2022-11-18T10:39:56;16.42;;;8.55;;
55489;SDS011;44029;52.956;4.772;2022-11-18T10:42:28;13.87;;;8.87;;
55489;SDS011;44029;52.956;4.772;2022-11-18T10:47:41;12.93;;;8.10;;
55489;SDS011;44029;52.956;4.772;2022-11-18T10:50:27;18.63;;;8.38;;
55489;SDS011;44029;52.956;4.772;2022-11-18T10:52:52;14.77;;;8.93;;
55489;SDS011;44029;52.956;4.772;2022-11-18T10:55:22;16.60;;;9.07;;
55489;SDS011;44029;52.956;4.772;2022-11-18T10:57:49;21.48;;;10.50;;
55489;SDS011;44029;52.956;4.772;2022-11-18T11:00:34;15.48;;;8.82;;
55489;SDS011;44029;52.956;4.772;2022-11-18T11:03:21;19.02;;;9.50;;
55489;SDS011;44029;52.956;4.772;2022-11-18T11:05:47;18.30;;;9.15;;
55489;SDS011;44029;52.956;4.772;2022-11-18T11:08:20;22.92;;;9.95;;
55489;SDS011;44029;52.956;4.772;2022-11-18T11:10:53;13.80;;;9.35;;
55489;SDS011;44029;52.956;4.772;2022-11-18T11:13:20;16.40;;;9.25;;
55489;SDS011;44029;52.956;4.772;2022-11-18T11:15:49;24.73;;;8.55;;
55489;SDS011;44029;52.956;4.772;2022-11-18T11:18:20;16.60;;;9.88;;
55489;SDS011;44029;52.956;4.772;2022-11-18T11:21:16;14.70;;;9.13;;
55489;SDS011;44029;52.956;4.772;2022-11-18T11:23:44;20.42;;;9.65;;
55489;SDS011;44029;52.956;4.772;2022-11-18T11:29:09;14.30;;;9.98;;
55489;SDS011;44029;52.956;4.772;2022-11-18T11:37:57;21.45;;;12.90;;
55489;SDS011;44029;52.956;4.772;2022-11-18T11:46:01;15.48;;;9.13;;
55489;SDS011;44029;52.956;4.772;2022-11-18T11:48:44;15.43;;;8.68;;
55489;SDS011;44029;52.956;4.772;2022-11-18T11:51:54;16.38;;;9.13;;
55489;SDS011;44029;52.956;4.772;2022-11-18T11:57:03;18.95;;;9.07;;
55489;SDS011;44029;52.956;4.772;2022-11-18T11:59:36;18.05;;;9.30;;
55489;SDS011;44029;52.956;4.772;2022-11-18T12:05:21;15.02;;;9.45;;
55489;SDS011;44029;52.956;4.772;2022-11-18T12:07:54;19.88;;;10.10;;
55489;SDS011;44029;52.956;4.772;2022-11-18T12:13:25;13.93;;;8.15;;
55489;SDS011;44029;52.956;4.772;2022-11-18T12:16:03;13.05;;;7.65;;
55489;SDS011;44029;52.956;4.772;2022-11-18T12:26:41;18.80;;;8.40;;
55489;SDS011;44029;52.956;4.772;2022-11-18T12:31:44;16.98;;;8.05;;
55489;SDS011;44029;52.956;4.772;2022-11-18T12:36:49;17.20;;;8.20;;
55489;SDS011;44029;52.956;4.772;2022-11-18T12:44:34;15.00;;;7.68;;
55489;SDS011;44029;52.956;4.772;2022-11-18T12:47:00;13.52;;;7.57;;
55489;SDS011;44029;52.956;4.772;2022-11-18T12:51:53;13.25;;;7.95;;
55489;SDS011;44029;52.956;4.772;2022-11-18T12:54:32;14.70;;;7.80;;
55489;SDS011;44029;52.956;4.772;2022-11-18T12:57:12;18.95;;;8.35;;
55489;SDS011;44029;52.956;4.772;2022-11-18T12:59:42;17.17;;;7.30;;
55489;SDS011;44029;52.956;4.772;2022-11-18T13:04:36;15.20;;;8.07;;
55489;SDS011;44029;52.956;4.772;2022-11-18T13:07:05;15.80;;;7.68;;
55489;SDS011;44029;52.956;4.772;2022-11-18T13:09:55;23.05;;;7.95;;
55489;SDS011;44029;52.956;4.772;2022-11-18T13:12:21;13.38;;;6.60;;
55489;SDS011;44029;52.956;4.772;2022-11-18T13:14:50;15.48;;;7.45;;
55489;SDS011;44029;52.956;4.772;2022-11-18T13:17:40;14.43;;;8.07;;
55489;SDS011;44029;52.956;4.772;2022-11-18T13:20:24;13.82;;;8.35;;
55489;SDS011;44029;52.956;4.772;2022-11-18T13:22:57;15.52;;;7.35;;
55489;SDS011;44029;52.956;4.772;2022-11-18T13:26:03;13.35;;;7.88;;
55489;SDS011;44029;52.956;4.772;2022-11-18T13:28:34;11.52;;;7.85;;
55489;SDS011;44029;52.956;4.772;2022-11-18T13:31:11;13.57;;;7.97;;
55489;SDS011;44029;52.956;4.772;2022-11-18T13:34:07;17.77;;;8.30;;
55489;SDS011;44029;52.956;4.772;2022-11-18T13:36:41;19.13;;;8.93;;
55489;SDS011;44029;52.956;4.772;2022-11-18T13:39:16;16.98;;;8.73;;
55489;SDS011;44029;52.956;4.772;2022-11-18T13:41:47;18.63;;;9.68;;
55489;SDS011;44029;52.956;4.772;2022-11-18T13:44:37;15.43;;;7.80;;
55489;SDS011;44029;52.956;4.772;2022-11-18T13:52:33;21.30;;;10.10;;
55489;SDS011;44029;52.956;4.772;2022-11-18T13:55:12;22.98;;;10.15;;
55489;SDS011;44029;52.956;4.772;2022-11-18T13:57:44;16.77;;;8.30;;
55489;SDS011;44029;52.956;4.772;2022-11-18T14:00:18;19.73;;;9.23;;
55489;SDS011;44029;52.956;4.772;2022-11-18T14:02:47;20.80;;;11.52;;
55489;SDS011;44029;52.956;4.772;2022-11-18T14:05:27;24.83;;;12.60;;
55489;SDS011;44029;52.956;4.772;2022-11-18T14:07:58;20.45;;;11.43;;
55489;SDS011;44029;52.956;4.772;2022-11-18T14:10:39;26.25;;;12.00;;
55489;SDS011;44029;52.956;4.772;2022-11-18T14:18:47;29.52;;;11.98;;
55489;SDS011;44029;52.956;4.772;2022-11-18T14:21:25;26.92;;;12.57;;
55489;SDS011;44029;52.956;4.772;2022-11-18T14:23:53;26.73;;;10.50;;
55489;SDS011;44029;52.956;4.772;2022-11-18T14:26:25;24.27;;;10.93;;
55489;SDS011;44029;52.956;4.772;2022-11-18T14:28:53;16.33;;;8.23;;
55489;SDS011;44029;52.956;4.772;2022-11-18T14:31:22;26.20;;;12.55;;
55489;SDS011;44029;52.956;4.772;2022-11-18T14:36:51;26.55;;;13.35;;
55489;SDS011;44029;52.956;4.772;2022-11-18T14:39:22;24.23;;;10.50;;
55489;SDS011;44029;52.956;4.772;2022-11-18T14:44:15;21.73;;;10.98;;
55489;SDS011;44029;52.956;4.772;2022-11-18T14:46:42;18.05;;;9.85;;
55489;SDS011;44029;52.956;4.772;2022-11-18T14:49:15;22.30;;;10.30;;
55489;SDS011;44029;52.956;4.772;2022-11-18T14:51:42;22.38;;;11.55;;
55489;SDS011;44029;52.956;4.772;2022-11-18T14:54:10;22.33;;;10.25;;
55489;SDS011;44029;52.956;4.772;2022-11-18T14:56:39;20.35;;;9.18;;
55489;SDS011;44029;52.956;4.772;2022-11-18T14:59:06;18.17;;;8.20;;
55489;SDS011;44029;52.956;4.772;2022-11-18T15:01:31;23.98;;;9.77;;
55489;SDS011;44029;52.956;4.772;2022-11-18T15:03:56;19.80;;;9.95;;
55489;SDS011;44029;52.956;4.772;2022-11-18T15:06:22;21.08;;;9.02;;
55489;SDS011;44029;52.956;4.772;2022-11-18T15:08:49;28.20;;;9.77;;
55489;SDS011;44029;52.956;4.772;2022-11-18T15:11:16;17.20;;;9.32;;
55489;SDS011;44029;52.956;4.772;2022-11-18T15:13:43;16.23;;;8.63;;
55489;SDS011;44029;52.956;4.772;2022-11-18T15:16:12;12.38;;;6.88;;
55489;SDS011;44029;52.956;4.772;2022-11-18T15:18:40;21.03;;;10.10;;
55489;SDS011;44029;52.956;4.772;2022-11-18T15:21:05;22.13;;;9.25;;
55489;SDS011;44029;52.956;4.772;2022-11-18T15:23:31;20.25;;;8.82;;
55489;SDS011;44029;52.956;4.772;2022-11-18T15:25:56;23.33;;;9.55;;
55489;SDS011;44029;52.956;4.772;2022-11-18T15:28:22;19.92;;;8.20;;
55489;SDS011;44029;52.956;4.772;2022-11-18T15:30:47;18.25;;;8.77;;
55489;SDS011;44029;52.956;4.772;2022-11-18T15:33:12;19.98;;;7.93;;
55489;SDS011;44029;52.956;4.772;2022-11-18T15:35:37;15.80;;;7.35;;
55489;SDS011;44029;52.956;4.772;2022-11-18T15:38:03;19.45;;;7.75;;
55489;SDS011;44029;52.956;4.772;2022-11-18T15:40:29;12.07;;;6.13;;
55489;SDS011;44029;52.956;4.772;2022-11-18T15:42:54;17.98;;;7.45;;
55489;SDS011;44029;52.956;4.772;2022-11-18T15:45:20;18.08;;;7.72;;
55489;SDS011;44029;52.956;4.772;2022-11-18T15:47:45;15.25;;;7.97;;
55489;SDS011;44029;52.956;4.772;2022-11-18T15:50:11;14.52;;;6.78;;
55489;SDS011;44029;52.956;4.772;2022-11-18T15:52:36;18.92;;;8.27;;
55489;SDS011;44029;52.956;4.772;2022-11-18T15:55:02;14.82;;;6.93;;
55489;SDS011;44029;52.956;4.772;2022-11-18T15:57:28;16.48;;;6.05;;
55489;SDS011;44029;52.956;4.772;2022-11-18T15:59:53;16.35;;;7.00;;
55489;SDS011;44029;52.956;4.772;2022-11-18T16:02:18;11.65;;;5.68;;
55489;SDS011;44029;52.956;4.772;2022-11-18T16:04:43;12.63;;;7.00;;
55489;SDS011;44029;52.956;4.772;2022-11-18T16:07:09;11.02;;;6.07;;
55489;SDS011;44029;52.956;4.772;2022-11-18T16:09:34;15.50;;;5.75;;
55489;SDS011;44029;52.956;4.772;2022-11-18T16:12:18;16.83;;;7.28;;
55489;SDS011;44029;52.956;4.772;2022-11-18T16:15:02;13.77;;;7.13;;
55489;SDS011;44029;52.956;4.772;2022-11-18T16:17:46;9.88;;;6.35;;
55489;SDS011;44029;52.956;4.772;2022-11-18T16:20:11;19.92;;;7.10;;
55489;SDS011;44029;52.956;4.772;2022-11-18T16:22:36;20.85;;;8.55;;
55489;SDS011;44029;52.956;4.772;2022-11-18T16:25:02;17.42;;;7.45;;
55489;SDS011;44029;52.956;4.772;2022-11-18T16:27:27;18.88;;;7.68;;
55489;SDS011;44029;52.956;4.772;2022-11-18T16:29:53;20.30;;;8.20;;
55489;SDS011;44029;52.956;4.772;2022-11-18T16:32:18;14.85;;;8.57;;
55489;SDS011;44029;52.956;4.772;2022-11-18T16:34:44;15.23;;;8.60;;
55489;SDS011;44029;52.956;4.772;2022-11-18T16:37:09;21.05;;;8.80;;
55489;SDS011;44029;52.956;4.772;2022-11-18T16:39:34;22.88;;;9.05;;
55489;SDS011;44029;52.956;4.772;2022-11-18T16:42:00;16.52;;;8.18;;
55489;SDS011;44029;52.956;4.772;2022-11-18T16:44:26;18.80;;;8.38;;
55489;SDS011;44029;52.956;4.772;2022-11-18T16:46:52;17.25;;;7.43;;